createdAt,value
2023-05-03T00:01:31.794Z,80.81
2023-05-03T00:03:59.517Z,82.06
2023-05-03T00:06:28.158Z,82.34
2023-05-03T00:08:56.126Z,81.96
2023-05-03T00:11:23.891Z,80.84
2023-05-03T00:13:51.708Z,80.46
2023-05-03T00:16:20.723Z,80.79
2023-05-03T00:18:49.480Z,80.67
2023-05-03T00:21:17.361Z,80.86
2023-05-03T00:23:45.158Z,80.91
2023-05-03T00:26:13.034Z,80.19
2023-05-03T00:28:41.724Z,80.10
2023-05-03T00:31:11.038Z,79.81
2023-05-03T00:33:40.149Z,80.74
2023-05-03T00:36:09.861Z,80.16
2023-05-03T00:38:38.140Z,80.24
2023-05-03T00:41:06.865Z,80.48
2023-05-03T00:43:35.413Z,80.07
2023-05-03T00:46:15.930Z,79.47
2023-05-03T00:48:50.779Z,81.39
2023-05-03T00:51:20.748Z,80.71
2023-05-03T00:53:48.508Z,82.66
2023-05-03T00:56:26.390Z,80.55
2023-05-03T00:58:54.516Z,80.05
2023-05-03T01:01:22.510Z,79.43
2023-05-03T01:03:50.799Z,79.16
2023-05-03T01:06:43.675Z,80.37
2023-05-03T01:09:39.793Z,80.97
2023-05-03T01:12:23.846Z,81.41
2023-05-03T01:15:08.481Z,81.75
2023-05-03T01:17:42.220Z,81.56
2023-05-03T01:20:14.202Z,80.96
2023-05-03T01:22:56.390Z,80.09
2023-05-03T01:25:25.304Z,81.78
2023-05-03T01:27:53.061Z,81.54
2023-05-03T01:30:24.086Z,83.42
2023-05-03T01:33:13.634Z,83.18
2023-05-03T01:36:02.395Z,82.59
2023-05-03T01:38:37.332Z,81.51
2023-05-03T01:41:12.733Z,81.61
2023-05-03T01:43:40.706Z,81.68
2023-05-03T01:46:08.568Z,81.68
2023-05-03T01:48:36.706Z,84.09
2023-05-03T01:51:04.583Z,81.65
2023-05-03T01:53:32.295Z,81.79
2023-05-03T01:55:59.997Z,82.35
2023-05-03T01:58:27.853Z,82.65
2023-05-03T02:00:56.777Z,83.05
2023-05-03T02:03:24.610Z,81.55
2023-05-03T02:05:52.294Z,81.46
2023-05-03T02:08:20.172Z,81.32
2023-05-03T02:10:47.998Z,81.66
2023-05-03T02:13:17.245Z,80.80
2023-05-03T02:15:44.953Z,81.75
2023-05-03T02:18:12.722Z,81.78
2023-05-03T02:20:44.996Z,81.01
2023-05-03T02:23:13.246Z,80.63
2023-05-03T02:25:41.640Z,80.98
2023-05-03T02:28:09.431Z,81.48
2023-05-03T02:30:37.254Z,80.88
2023-05-03T02:33:05.044Z,81.19
2023-05-03T02:35:33.189Z,81.29
2023-05-03T02:38:00.922Z,79.96
2023-05-03T02:40:28.844Z,80.21
2023-05-03T02:42:56.810Z,79.84
2023-05-03T02:45:26.603Z,80.50
2023-05-03T02:47:55.091Z,80.40
2023-05-03T02:50:23.177Z,80.24
2023-05-03T02:52:50.987Z,80.78
2023-05-03T02:55:18.896Z,80.90
2023-05-03T02:57:47.054Z,80.67
2023-05-03T03:00:16.869Z,81.16
2023-05-03T03:02:44.976Z,81.08
2023-05-03T03:05:13.063Z,81.73
2023-05-03T03:07:41.299Z,81.78
2023-05-03T03:10:09.783Z,81.11
2023-05-03T03:12:37.841Z,80.72
2023-05-03T03:15:07.182Z,81.52
2023-05-03T03:17:39.414Z,80.89
2023-05-03T03:20:11.821Z,81.31
2023-05-03T03:22:40.287Z,82.25
2023-05-03T03:25:08.776Z,80.66
2023-05-03T03:27:39.078Z,81.56
2023-05-03T03:30:08.630Z,82.21
2023-05-03T03:32:36.984Z,82.09
2023-05-03T03:35:05.739Z,82.04
2023-05-03T03:37:33.786Z,81.20
2023-05-03T03:40:01.731Z,81.37
2023-05-03T03:42:31.020Z,81.36
2023-05-03T03:44:59.147Z,80.20
2023-05-03T03:47:27.132Z,80.76
2023-05-03T03:49:55.031Z,81.67
2023-05-03T03:52:22.824Z,81.17
2023-05-03T03:54:50.684Z,80.99
2023-05-03T03:57:20.734Z,81.50
2023-05-03T03:59:48.635Z,81.18
2023-05-03T04:02:16.596Z,80.73
2023-05-03T04:04:44.595Z,80.71
2023-05-03T04:07:12.624Z,80.91
2023-05-03T04:09:40.421Z,81.11
2023-05-03T04:12:08.433Z,80.53
2023-05-03T04:14:36.513Z,79.68
2023-05-03T04:17:04.663Z,79.45
2023-05-03T04:19:33.307Z,79.16
2023-05-03T04:22:01.347Z,79.15
2023-05-03T04:24:30.587Z,79.18
2023-05-03T04:26:59.130Z,79.03
2023-05-03T04:29:30.151Z,78.77
2023-05-03T04:31:58.311Z,78.55
2023-05-03T04:34:26.382Z,79.00
2023-05-03T04:36:54.855Z,79.42
2023-05-03T04:39:24.031Z,78.68
2023-05-03T04:41:53.580Z,78.05
2023-05-03T04:44:22.391Z,77.96
2023-05-03T04:46:51.335Z,77.38
2023-05-03T04:49:19.526Z,77.27
2023-05-03T04:51:47.430Z,77.12
2023-05-03T04:54:15.589Z,77.24
2023-05-03T04:56:43.394Z,77.27
2023-05-03T04:59:16.059Z,77.12
2023-05-03T05:01:44.004Z,76.55
2023-05-03T05:04:12.055Z,77.30
2023-05-03T05:06:43.905Z,77.09
2023-05-03T05:09:25.969Z,75.90
2023-05-03T05:11:57.225Z,74.97
2023-05-03T05:14:28.106Z,74.67
2023-05-03T05:16:56.032Z,74.08
2023-05-03T05:19:24.096Z,73.75
2023-05-03T05:21:52.627Z,73.75
2023-05-03T05:24:21.209Z,74.07
2023-05-03T05:26:49.635Z,73.31
2023-05-03T05:29:18.020Z,73.09
2023-05-03T05:31:46.482Z,71.57
2023-05-03T05:34:14.555Z,72.84
2023-05-03T05:36:42.666Z,72.26
2023-05-03T05:39:10.450Z,70.09
2023-05-03T05:41:38.400Z,68.45
2023-05-03T05:44:07.265Z,69.17
2023-05-03T05:46:35.271Z,70.54
2023-05-03T05:49:03.384Z,70.34
2023-05-03T05:51:31.822Z,69.75
2023-05-03T05:54:00.336Z,68.43
2023-05-03T05:56:29.138Z,67.73
2023-05-03T05:58:57.768Z,68.21
2023-05-03T06:01:27.059Z,68.46
2023-05-03T06:03:56.429Z,68.31
2023-05-03T06:06:24.497Z,67.82
2023-05-03T06:08:53.571Z,64.91
2023-05-03T06:11:22.248Z,65.63
2023-05-03T06:13:50.316Z,63.87
2023-05-03T06:16:19.522Z,63.69
2023-05-03T06:18:47.261Z,65.66
2023-05-03T06:21:15.629Z,64.95
2023-05-03T06:23:43.654Z,64.42
2023-05-03T06:26:12.105Z,62.76
2023-05-03T06:28:40.153Z,59.01
2023-05-03T06:31:08.187Z,59.43
2023-05-03T06:33:36.089Z,57.06
2023-05-03T06:36:04.228Z,57.53
2023-05-03T06:38:32.057Z,58.45
2023-05-03T06:40:59.948Z,56.45
2023-05-03T06:43:27.946Z,57.13
2023-05-03T06:46:01.904Z,56.54
2023-05-03T06:48:29.787Z,56.27
2023-05-03T06:50:57.686Z,56.18
2023-05-03T06:53:25.531Z,56.13
2023-05-03T06:55:53.347Z,57.12
2023-05-03T06:58:21.749Z,56.85
2023-05-03T07:00:53.542Z,57.32
2023-05-03T07:03:21.800Z,56.62
2023-05-03T07:05:49.673Z,57.04
2023-05-03T07:08:17.917Z,54.38
2023-05-03T07:10:45.888Z,52.25
2023-05-03T07:13:14.254Z,52.22
2023-05-03T07:15:42.007Z,52.04
2023-05-03T07:18:09.862Z,53.05
2023-05-03T07:20:37.813Z,52.75
2023-05-03T07:23:06.581Z,52.01
2023-05-03T07:25:34.802Z,52.69
2023-05-03T07:28:03.235Z,52.86
2023-05-03T07:30:30.998Z,53.32
2023-05-03T07:32:58.881Z,52.79
2023-05-03T07:35:29.328Z,53.91
2023-05-03T07:37:57.163Z,53.26
2023-05-03T07:40:25.162Z,53.27
2023-05-03T07:42:52.932Z,52.53
2023-05-03T07:45:21.128Z,54.57
2023-05-03T07:47:48.908Z,52.29
2023-05-03T07:50:16.842Z,52.08
2023-05-03T07:52:44.786Z,50.24
2023-05-03T07:55:12.822Z,48.44
2023-05-03T07:57:40.546Z,49.67
2023-05-03T08:00:10.914Z,50.18
2023-05-03T08:02:41.697Z,49.74
2023-05-03T08:05:13.966Z,51.07
2023-05-03T08:07:42.183Z,50.85
2023-05-03T08:10:10.646Z,48.35
2023-05-03T08:12:38.702Z,48.74
2023-05-03T08:15:07.207Z,48.96
2023-05-03T08:17:42.974Z,48.82
2023-05-03T08:20:12.254Z,49.02
2023-05-03T08:22:41.514Z,47.97
2023-05-03T08:25:09.992Z,46.90
2023-05-03T08:27:39.057Z,47.05
2023-05-03T08:30:07.796Z,48.32
2023-05-03T08:32:35.643Z,48.79
2023-05-03T08:35:07.178Z,49.07
2023-05-03T08:37:40.167Z,48.70
2023-05-03T08:40:11.653Z,47.81
2023-05-03T08:42:44.779Z,47.18
2023-05-03T08:45:16.298Z,43.80
2023-05-03T08:47:45.582Z,43.93
2023-05-03T08:50:15.067Z,44.35
2023-05-03T08:52:43.486Z,43.98
2023-05-03T08:55:11.682Z,46.01
2023-05-03T08:57:39.900Z,44.18
2023-05-03T09:00:11.247Z,44.51
2023-05-03T09:02:40.148Z,44.47
2023-05-03T09:05:14.370Z,39.92
2023-05-03T09:08:09.966Z,39.35
2023-05-03T09:10:40.072Z,40.50
2023-05-03T09:13:09.414Z,39.47
2023-05-03T09:15:37.534Z,40.10
2023-05-03T09:18:15.827Z,37.67
2023-05-03T09:20:54.207Z,38.39
2023-05-03T09:23:31.507Z,38.16
2023-05-03T09:26:00.397Z,36.65
2023-05-03T09:28:28.347Z,36.63
2023-05-03T09:31:07.243Z,36.87
2023-05-03T09:33:35.330Z,35.98
2023-05-03T09:36:05.151Z,37.34
2023-05-03T09:38:34.930Z,36.88
2023-05-03T09:41:08.703Z,36.31
2023-05-03T09:44:02.940Z,35.82
2023-05-03T09:46:32.512Z,34.57
2023-05-03T09:49:00.462Z,35.86
2023-05-03T09:51:29.731Z,37.88
2023-05-03T09:53:58.981Z,37.18
2023-05-03T09:56:26.822Z,32.97
2023-05-03T09:58:54.814Z,33.68
2023-05-03T10:01:25.406Z,34.98
2023-05-03T10:03:58.230Z,34.83
2023-05-03T10:06:29.982Z,35.31
2023-05-03T10:09:14.499Z,34.24
2023-05-03T10:11:50.496Z,35.41
2023-05-03T10:14:18.933Z,34.65
2023-05-03T10:16:50.142Z,33.52
2023-05-03T10:19:25.102Z,34.10
2023-05-03T10:22:04.547Z,34.21
2023-05-03T10:24:33.852Z,34.64
2023-05-03T10:27:02.459Z,35.27
2023-05-03T10:29:37.639Z,31.92
2023-05-03T10:32:06.473Z,32.08
2023-05-03T10:34:36.697Z,32.85
2023-05-03T10:37:12.330Z,31.40
2023-05-03T10:39:44.769Z,31.54
2023-05-03T10:42:13.298Z,29.75
2023-05-03T10:44:52.916Z,31.86
2023-05-03T10:47:25.540Z,31.03
2023-05-03T10:50:12.233Z,31.06
2023-05-03T10:52:39.989Z,28.72
2023-05-03T10:55:16.156Z,30.19
2023-05-03T10:57:48.051Z,31.70
2023-05-03T11:00:38.440Z,29.52
2023-05-03T11:03:22.050Z,29.75
2023-05-03T11:05:51.837Z,31.70
2023-05-03T11:08:21.773Z,29.81
2023-05-03T11:10:57.411Z,28.20
2023-05-03T11:13:26.053Z,29.43
2023-05-03T11:15:56.294Z,29.75
2023-05-03T11:18:27.340Z,29.06
2023-05-03T11:20:55.947Z,28.58
2023-05-03T11:23:28.999Z,31.64
2023-05-03T11:25:59.808Z,30.50
2023-05-03T11:28:27.621Z,30.72
2023-05-03T11:30:55.484Z,31.24
2023-05-03T11:33:23.513Z,32.03
2023-05-03T11:35:56.085Z,33.11
2023-05-03T11:38:23.824Z,34.97
2023-05-03T11:40:51.786Z,33.32
2023-05-03T11:43:19.589Z,31.65
2023-05-03T11:45:49.276Z,30.98
2023-05-03T11:48:17.482Z,33.22
2023-05-03T11:50:51.317Z,34.40
2023-05-03T11:53:19.619Z,33.68
2023-05-03T11:55:49.360Z,33.54
2023-05-03T11:58:26.863Z,34.35
2023-05-03T12:00:56.831Z,34.17
2023-05-03T12:03:32.207Z,33.33
2023-05-03T12:06:02.705Z,33.87
2023-05-03T12:08:36.533Z,33.10
2023-05-03T12:11:07.585Z,33.29
2023-05-03T12:13:39.691Z,34.21
2023-05-03T12:16:13.557Z,33.65
2023-05-03T12:18:58.805Z,36.52
2023-05-03T12:21:59.345Z,34.15
2023-05-03T12:24:34.889Z,33.17
2023-05-03T12:27:04.296Z,36.03
2023-05-03T12:29:35.405Z,33.05
2023-05-03T12:32:05.081Z,34.06
2023-05-03T12:34:36.203Z,34.82
2023-05-03T12:37:06.427Z,35.36
2023-05-03T12:39:39.277Z,35.68
2023-05-03T12:42:09.277Z,36.38
2023-05-03T12:44:42.687Z,36.63
2023-05-03T12:47:11.643Z,36.44
2023-05-03T12:49:46.008Z,35.55
2023-05-03T12:55:02.883Z,35.09
2023-05-03T12:57:36.706Z,34.19
2023-05-03T13:00:14.374Z,33.16
2023-05-03T13:05:27.698Z,35.66
2023-05-03T13:08:07.993Z,33.15
2023-05-03T13:10:39.075Z,32.93
2023-05-03T13:13:07.365Z,34.77
2023-05-03T13:15:36.510Z,34.55
2023-05-03T13:18:07.840Z,35.10
2023-05-03T13:20:37.817Z,34.33
2023-05-03T13:23:05.830Z,34.56
2023-05-03T13:25:33.630Z,35.10
2023-05-03T13:28:01.709Z,34.03
2023-05-03T13:30:29.746Z,33.01
2023-05-03T13:32:57.624Z,32.68
2023-05-03T13:35:25.876Z,32.79
2023-05-03T13:37:53.649Z,33.43
2023-05-03T13:40:21.623Z,31.70
2023-05-03T13:42:49.516Z,32.63
2023-05-03T13:45:18.384Z,33.18
2023-05-03T13:48:13.306Z,33.74
2023-05-03T13:50:34.437Z,33.88
2023-05-03T13:53:02.252Z,33.33
2023-05-03T13:55:30.050Z,32.38
2023-05-03T13:57:57.983Z,32.97
2023-05-03T14:00:25.910Z,34.04
2023-05-03T14:02:53.801Z,32.71
2023-05-03T14:05:21.739Z,34.88
2023-05-03T14:07:49.529Z,34.47
2023-05-03T14:10:17.380Z,33.31
2023-05-03T14:12:45.760Z,32.48
2023-05-03T14:15:14.557Z,31.18
2023-05-03T14:17:43.745Z,31.75
2023-05-03T14:20:12.460Z,32.55
2023-05-03T14:22:40.468Z,31.04
2023-05-03T14:25:08.911Z,31.55
2023-05-03T14:27:37.121Z,31.94
2023-05-03T14:30:05.980Z,33.18
2023-05-03T14:32:34.119Z,33.09
2023-05-03T14:35:02.107Z,33.46
2023-05-03T14:37:30.919Z,34.37
2023-05-03T14:39:58.776Z,34.47
2023-05-03T14:42:30.255Z,34.34
2023-05-03T14:44:58.777Z,34.31
2023-05-03T14:47:26.636Z,33.94
2023-05-03T14:49:54.488Z,35.60
2023-05-03T14:52:22.732Z,35.36
2023-05-03T14:54:50.708Z,32.21
2023-05-03T14:57:18.486Z,33.13
2023-05-03T14:59:47.258Z,32.75
2023-05-03T15:02:15.254Z,34.05
2023-05-03T15:04:43.401Z,34.52
2023-05-03T15:07:11.605Z,35.38
2023-05-03T15:09:39.863Z,34.81
2023-05-03T15:12:08.169Z,35.49
2023-05-03T15:14:35.929Z,35.36
2023-05-03T15:17:03.818Z,35.74
2023-05-03T15:19:32.396Z,35.34
2023-05-03T15:22:00.179Z,36.64
2023-05-03T15:24:27.979Z,35.24
2023-05-03T15:26:57.132Z,34.07
2023-05-03T15:29:25.106Z,34.88
2023-05-03T15:31:52.870Z,34.75
2023-05-03T15:34:20.646Z,34.85
2023-05-03T15:36:48.639Z,35.28
2023-05-03T15:39:16.389Z,35.82
2023-05-03T15:41:45.835Z,36.08
2023-05-03T15:44:15.085Z,36.65
2023-05-03T15:46:43.105Z,36.81
2023-05-03T15:49:12.004Z,37.61
2023-05-03T15:51:40.166Z,37.51
2023-05-03T15:54:07.945Z,37.46
2023-05-03T15:56:38.255Z,37.58
2023-05-03T15:59:06.301Z,37.63
2023-05-03T16:01:34.436Z,37.42
2023-05-03T16:04:02.255Z,37.01
2023-05-03T16:06:30.075Z,37.56
2023-05-03T16:08:59.307Z,37.80
2023-05-03T16:11:27.186Z,37.87
2023-05-03T16:13:54.987Z,37.47
2023-05-03T16:16:22.890Z,37.74
2023-05-03T16:18:50.974Z,37.15
2023-05-03T16:21:18.843Z,37.58
2023-05-03T16:23:47.179Z,37.45
2023-05-03T16:26:15.282Z,37.89
2023-05-03T16:28:43.167Z,38.25
2023-05-03T16:31:12.893Z,38.14
2023-05-03T16:33:40.768Z,37.88
2023-05-03T16:36:09.608Z,37.59
2023-05-03T16:38:39.004Z,37.70
2023-05-03T16:41:07.425Z,37.96
2023-05-03T16:43:35.316Z,37.85
2023-05-03T16:46:03.263Z,37.28
2023-05-03T16:48:32.666Z,37.37
2023-05-03T16:51:01.040Z,37.51
2023-05-03T16:53:28.771Z,37.59
2023-05-03T16:55:56.907Z,37.53
2023-05-03T16:58:25.315Z,37.73
2023-05-03T17:00:53.517Z,37.76
2023-05-03T17:03:21.656Z,38.69
2023-05-03T17:05:49.851Z,37.78
2023-05-03T17:08:17.958Z,38.31
2023-05-03T17:10:45.792Z,38.46
2023-05-03T17:13:13.931Z,38.44
2023-05-03T17:15:43.039Z,39.42
2023-05-03T17:18:11.790Z,39.82
2023-05-03T17:20:39.603Z,39.57
2023-05-03T17:23:07.617Z,40.74
2023-05-03T17:25:36.081Z,39.91
2023-05-03T17:28:04.442Z,39.40
2023-05-03T17:30:32.599Z,39.11
2023-05-03T17:33:00.476Z,39.15
2023-05-03T17:35:28.627Z,40.42
2023-05-03T17:37:57.156Z,40.30
2023-05-03T17:40:25.353Z,41.05
2023-05-03T17:42:53.226Z,42.78
2023-05-03T17:45:21.268Z,43.45
2023-05-03T17:47:49.268Z,44.25
2023-05-03T17:50:17.358Z,44.67
2023-05-03T17:52:45.361Z,43.88
2023-05-03T17:55:13.310Z,44.35
2023-05-03T17:57:41.181Z,45.23
2023-05-03T18:00:15.170Z,45.73
2023-05-03T18:02:43.447Z,46.05
2023-05-03T18:05:12.236Z,46.15
2023-05-03T18:07:40.090Z,46.32
2023-05-03T18:10:09.501Z,46.39
2023-05-03T18:12:37.516Z,45.95
2023-05-03T18:15:06.326Z,47.23
2023-05-03T18:17:34.271Z,47.83
2023-05-03T18:20:02.734Z,47.74
2023-05-03T18:22:30.926Z,48.33
2023-05-03T18:25:01.980Z,48.10
2023-05-03T18:27:29.891Z,48.59
2023-05-03T18:29:57.638Z,47.99
2023-05-03T18:32:26.130Z,48.95
2023-05-03T18:34:53.973Z,52.31
2023-05-03T18:37:23.989Z,51.10
2023-05-03T18:39:52.765Z,49.80
2023-05-03T18:42:21.424Z,50.99
2023-05-03T18:44:49.560Z,51.23
2023-05-03T18:47:20.967Z,52.31
2023-05-03T18:49:53.066Z,52.31
2023-05-03T18:52:23.066Z,51.50
2023-05-03T18:54:51.444Z,52.71
2023-05-03T18:57:20.139Z,53.08
2023-05-03T18:59:59.578Z,52.72
2023-05-03T19:02:31.535Z,53.54
2023-05-03T19:05:00.082Z,54.28
2023-05-03T19:07:28.155Z,54.45
2023-05-03T19:09:57.456Z,54.30
2023-05-03T19:12:25.438Z,54.38
2023-05-03T19:14:53.383Z,56.58
2023-05-03T19:17:21.385Z,53.35
2023-05-03T19:19:49.128Z,54.84
2023-05-03T19:22:16.977Z,52.78
2023-05-03T19:24:44.888Z,54.66
2023-05-03T19:27:12.806Z,56.85
2023-05-03T19:29:40.711Z,56.39
2023-05-03T19:32:08.493Z,55.10
2023-05-03T19:34:36.492Z,54.92
2023-05-03T19:37:05.065Z,57.47
2023-05-03T19:39:35.697Z,56.77
2023-05-03T19:42:04.531Z,58.21
2023-05-03T19:44:33.553Z,58.03
2023-05-03T19:47:01.530Z,58.16
2023-05-03T19:49:29.855Z,57.03
2023-05-03T19:51:57.752Z,60.00
2023-05-03T19:54:26.213Z,60.16
2023-05-03T19:56:55.248Z,60.18
2023-05-03T19:59:23.115Z,61.34
2023-05-03T20:01:51.221Z,62.43
2023-05-03T20:04:19.350Z,61.57
2023-05-03T20:06:47.280Z,62.23
2023-05-03T20:09:15.503Z,62.71
2023-05-03T20:11:43.580Z,63.35
2023-05-03T20:14:11.828Z,63.43
2023-05-03T20:16:39.968Z,62.77
2023-05-03T20:19:07.964Z,62.47
2023-05-03T20:21:35.658Z,61.62
2023-05-03T20:24:04.873Z,62.52
2023-05-03T20:26:32.610Z,62.72
2023-05-03T20:29:00.803Z,63.13
2023-05-03T20:31:28.556Z,63.32
2023-05-03T20:33:56.720Z,62.93
2023-05-03T20:36:24.649Z,62.91
2023-05-03T20:38:52.556Z,63.32
2023-05-03T20:41:20.736Z,64.18
2023-05-03T20:43:48.548Z,64.20
2023-05-03T20:46:18.399Z,64.27
2023-05-03T20:48:46.238Z,64.99
2023-05-03T20:51:14.958Z,64.51
2023-05-03T20:53:42.776Z,65.40
2023-05-03T20:56:11.363Z,65.92
2023-05-03T20:58:39.561Z,66.37
2023-05-03T21:01:08.217Z,66.60
2023-05-03T21:03:36.437Z,67.00
2023-05-03T21:06:05.907Z,66.79
2023-05-03T21:08:35.887Z,66.95
2023-05-03T21:11:04.323Z,66.93
2023-05-03T21:13:35.565Z,66.87
2023-05-03T21:16:03.780Z,67.09
2023-05-03T21:18:31.579Z,68.18
2023-05-03T21:20:59.419Z,69.57
2023-05-03T21:23:27.291Z,68.37
2023-05-03T21:25:56.371Z,67.92
2023-05-03T21:28:24.439Z,67.61
2023-05-03T21:30:54.510Z,69.28
2023-05-03T21:33:22.537Z,68.16
2023-05-03T21:35:50.441Z,68.63
2023-05-03T21:38:18.268Z,68.82
2023-05-03T21:40:47.159Z,70.30
2023-05-03T21:43:15.401Z,70.36
2023-05-03T21:45:44.157Z,70.31
2023-05-03T21:48:12.646Z,69.98
2023-05-03T21:50:40.561Z,69.98
2023-05-03T21:53:08.381Z,70.41
2023-05-03T21:55:36.277Z,69.62
2023-05-03T21:58:04.103Z,69.95
2023-05-03T22:00:31.941Z,70.13
2023-05-03T22:02:59.821Z,70.92
2023-05-03T22:05:28.154Z,70.96
2023-05-03T22:07:55.909Z,71.10
2023-05-03T22:10:23.729Z,70.93
2023-05-03T22:12:51.769Z,70.55
2023-05-03T22:15:19.792Z,72.32
2023-05-03T22:17:47.751Z,72.11
2023-05-03T22:20:15.567Z,71.69
2023-05-03T22:22:43.624Z,71.64
2023-05-03T22:25:22.942Z,72.11
2023-05-03T22:27:51.916Z,73.22
2023-05-03T22:30:20.411Z,72.43
2023-05-03T22:32:48.218Z,72.21
2023-05-03T22:35:16.156Z,71.80
2023-05-03T22:37:43.933Z,72.31
2023-05-03T22:40:11.988Z,72.03
2023-05-03T22:42:39.802Z,72.42
2023-05-03T22:45:08.626Z,72.20
2023-05-03T22:47:36.471Z,72.56
2023-05-03T22:50:05.761Z,72.75
2023-05-03T22:52:33.708Z,72.43
2023-05-03T22:55:02.746Z,73.23
2023-05-03T22:57:30.813Z,73.95
2023-05-03T22:59:59.426Z,73.33
2023-05-03T23:02:27.417Z,73.58
2023-05-03T23:04:55.258Z,74.13
2023-05-03T23:07:23.059Z,74.20
2023-05-03T23:09:59.706Z,73.36
2023-05-03T23:12:27.477Z,73.76
2023-05-03T23:14:55.225Z,74.57
2023-05-03T23:17:23.218Z,74.77
2023-05-03T23:19:51.082Z,74.24
2023-05-03T23:22:18.929Z,74.34
2023-05-03T23:24:46.648Z,74.05
2023-05-03T23:27:14.439Z,74.61
2023-05-03T23:29:43.096Z,74.33
2023-05-03T23:32:11.375Z,74.31
2023-05-03T23:34:39.763Z,74.42
2023-05-03T23:40:39.565Z,74.41
2023-05-03T23:43:07.552Z,74.34
2023-05-03T23:45:35.644Z,74.23
2023-05-03T23:48:03.492Z,74.63
2023-05-03T23:50:31.310Z,74.85
2023-05-03T23:52:59.374Z,74.92
2023-05-03T23:55:27.136Z,74.68
2023-05-03T23:57:54.902Z,74.85
